Time;durP1;ratioP1;P1;durP2;ratioP2;P2;SDS_P1;SDS_P2;PMS_P1;PMS_P2;Temp;Humidity;BMP_temperature;BMP_pressure;BME280_temperature;BME280_humidity;BME280_pressure;Samples;Min_cycle;Max_cycle;Signal;HPM_P1;HPM_P2
2023/06/03 00:00:41;;;;;;;9.40;3.53;;;;;;;;;;5011341;28;20474;-74
2023/06/03 00:03:11;;;;;;;4.25;3.10;;;;;;;;;;5007410;28;20449;-75
2023/06/03 00:05:38;;;;;;;6.45;3.28;;;;;;;;;;5007265;28;20474;-74
2023/06/03 00:08:04;;;;;;;4.40;3.10;;;;;;;;;;5002916;28;20069;-74
2023/06/03 00:10:30;;;;;;;4.93;3.10;;;;;;;;;;5003482;28;20085;-75
2023/06/03 00:12:56;;;;;;;8.02;3.58;;;;;;;;;;5002131;28;20045;-75
2023/06/03 00:15:22;;;;;;;7.88;3.30;;;;;;;;;;5009968;28;20046;-75
2023/06/03 00:17:48;;;;;;;6.97;3.60;;;;;;;;;;5023520;28;20096;-75
2023/06/03 00:20:14;;;;;;;10.30;3.90;;;;;;;;;;4995564;28;20180;-75
2023/06/03 00:22:40;;;;;;;6.75;3.50;;;;;;;;;;5005450;28;20540;-74
2023/06/03 00:25:07;;;;;;;5.63;3.30;;;;;;;;;;5001852;28;20054;-75
2023/06/03 00:27:34;;;;;;;7.88;3.70;;;;;;;;;;5002734;28;20089;-74
2023/06/03 00:30:01;;;;;;;5.45;3.00;;;;;;;;;;5026773;28;20060;-75
2023/06/03 00:32:27;;;;;;;6.15;3.40;;;;;;;;;;5010853;28;20918;-74
2023/06/03 00:34:53;;;;;;;6.38;3.47;;;;;;;;;;5011212;28;20042;-75
2023/06/03 00:37:19;;;;;;;7.40;3.28;;;;;;;;;;5022974;28;20046;-74
2023/06/03 00:39:45;;;;;;;5.75;3.10;;;;;;;;;;5008840;28;20042;-74
2023/06/03 00:42:11;;;;;;;5.93;2.97;;;;;;;;;;5013590;28;20092;-75
2023/06/03 00:44:37;;;;;;;5.82;3.00;;;;;;;;;;5010075;28;20060;-75
2023/06/03 00:47:04;;;;;;;4.05;2.92;;;;;;;;;;4995770;28;20045;-76
2023/06/03 00:49:30;;;;;;;4.30;3.00;;;;;;;;;;5013112;28;20042;-75
2023/06/03 00:51:56;;;;;;;4.90;3.00;;;;;;;;;;5012202;28;20045;-75
2023/06/03 00:54:23;;;;;;;5.80;3.22;;;;;;;;;;5014075;28;20042;-75
2023/06/03 00:56:49;;;;;;;4.03;2.97;;;;;;;;;;5008087;28;20502;-74
2023/06/03 00:59:16;;;;;;;4.95;3.20;;;;;;;;;;5007388;28;20053;-75
2023/06/03 01:01:42;;;;;;;5.25;3.20;;;;;;;;;;5013368;28;20057;-75
2023/06/03 01:04:12;;;;;;;4.35;2.95;;;;;;;;;;5005916;28;20044;-75
2023/06/03 01:06:56;;;;;;;5.53;3.15;;;;;;;;;;5011053;28;20054;-75
2023/06/03 01:09:26;;;;;;;4.65;2.80;;;;;;;;;;5010061;28;20371;-74
2023/06/03 01:12:07;;;;;;;3.58;2.72;;;;;;;;;;5007556;28;20073;-75
2023/06/03 01:14:35;;;;;;;3.70;2.85;;;;;;;;;;5007514;28;20081;-75
2023/06/03 01:17:09;;;;;;;5.32;3.08;;;;;;;;;;5010405;28;20068;-75
2023/06/03 01:19:38;;;;;;;5.45;3.10;;;;;;;;;;5010829;28;20072;-75
2023/06/03 01:22:07;;;;;;;4.93;2.60;;;;;;;;;;5012141;28;20505;-75
2023/06/03 01:24:34;;;;;;;4.00;2.85;;;;;;;;;;5005639;28;20076;-75
2023/06/03 01:27:01;;;;;;;5.20;2.55;;;;;;;;;;5006561;28;20050;-75
2023/06/03 01:29:27;;;;;;;4.97;2.90;;;;;;;;;;5010962;28;20510;-75
2023/06/03 01:31:55;;;;;;;4.35;2.95;;;;;;;;;;5011188;28;20046;-75
2023/06/03 01:34:21;;;;;;;6.18;2.97;;;;;;;;;;5007955;28;20062;-75
2023/06/03 01:36:47;;;;;;;6.38;2.95;;;;;;;;;;5011370;28;20045;-76
2023/06/03 01:39:13;;;;;;;5.03;2.70;;;;;;;;;;5005435;28;20048;-75
2023/06/03 01:41:42;;;;;;;5.80;2.72;;;;;;;;;;5008144;28;20045;-75
2023/06/03 01:44:08;;;;;;;4.15;2.90;;;;;;;;;;5004335;28;20413;-75
2023/06/03 01:46:36;;;;;;;3.22;2.90;;;;;;;;;;5005507;28;20050;-75
2023/06/03 01:49:02;;;;;;;3.13;2.70;;;;;;;;;;5003419;28;20042;-75
2023/06/03 01:51:29;;;;;;;4.25;2.38;;;;;;;;;;5011827;28;20574;-75
2023/06/03 01:53:56;;;;;;;3.22;2.85;;;;;;;;;;5004462;28;20485;-75
2023/06/03 01:56:22;;;;;;;4.30;2.70;;;;;;;;;;4999983;28;20553;-75
2023/06/03 01:58:48;;;;;;;3.47;2.70;;;;;;;;;;5011192;28;20050;-75
2023/06/03 02:01:14;;;;;;;2.83;2.50;;;;;;;;;;5004201;28;20391;-75
2023/06/03 02:03:40;;;;;;;4.38;2.60;;;;;;;;;;5001861;28;20042;-75
2023/06/03 02:06:06;;;;;;;3.72;2.65;;;;;;;;;;5010691;28;20038;-75
2023/06/03 02:08:32;;;;;;;4.45;2.78;;;;;;;;;;5013980;28;20038;-75
2023/06/03 02:10:58;;;;;;;3.72;2.85;;;;;;;;;;5021036;28;20505;-75
2023/06/03 02:13:24;;;;;;;3.95;2.50;;;;;;;;;;4997209;28;20056;-75
2023/06/03 02:15:50;;;;;;;3.83;2.55;;;;;;;;;;5008121;28;20103;-75
2023/06/03 02:18:17;;;;;;;3.65;2.55;;;;;;;;;;5009969;28;20053;-75
2023/06/03 02:20:43;;;;;;;5.93;2.55;;;;;;;;;;5005755;28;20497;-75
2023/06/03 02:23:11;;;;;;;4.65;2.80;;;;;;;;;;5003492;28;20405;-74
2023/06/03 02:25:37;;;;;;;3.47;2.58;;;;;;;;;;5004561;28;20085;-75
2023/06/03 02:28:03;;;;;;;4.97;2.67;;;;;;;;;;5010527;28;20080;-75
2023/06/03 02:30:29;;;;;;;4.57;2.60;;;;;;;;;;5009070;28;20065;-75
2023/06/03 02:32:55;;;;;;;3.45;2.63;;;;;;;;;;5005077;28;20124;-75
2023/06/03 02:35:21;;;;;;;3.60;2.40;;;;;;;;;;5006705;28;20482;-76
2023/06/03 02:37:47;;;;;;;2.85;2.45;;;;;;;;;;5009695;28;20050;-75
2023/06/03 02:40:13;;;;;;;3.63;2.50;;;;;;;;;;5007076;28;20081;-75
2023/06/03 02:42:40;;;;;;;3.97;2.60;;;;;;;;;;5011667;28;20077;-74
2023/06/03 02:45:06;;;;;;;5.30;2.65;;;;;;;;;;5007725;28;20125;-74
2023/06/03 02:47:32;;;;;;;4.75;2.55;;;;;;;;;;5009281;28;20042;-75
2023/06/03 02:49:58;;;;;;;3.38;2.80;;;;;;;;;;5008833;28;20046;-74
2023/06/03 02:52:24;;;;;;;3.90;2.78;;;;;;;;;;5004121;28;20133;-74
2023/06/03 02:54:50;;;;;;;4.38;2.47;;;;;;;;;;5009256;28;20474;-74
2023/06/03 02:57:16;;;;;;;2.30;2.10;;;;;;;;;;5026993;28;20046;-74
2023/06/03 02:59:42;;;;;;;3.88;2.50;;;;;;;;;;5013231;28;20481;-74
2023/06/03 03:02:09;;;;;;;4.50;2.60;;;;;;;;;;5027634;28;20130;-75
2023/06/03 03:04:37;;;;;;;4.45;2.58;;;;;;;;;;5009228;28;20424;-75
2023/06/03 03:07:07;;;;;;;3.08;2.78;;;;;;;;;;5009840;28;20089;-75
2023/06/03 03:09:33;;;;;;;4.93;2.38;;;;;;;;;;5008629;28;20559;-75
2023/06/03 03:11:59;;;;;;;3.85;2.60;;;;;;;;;;5011038;28;20046;-75
2023/06/03 03:14:25;;;;;;;6.15;2.67;;;;;;;;;;5009911;28;20045;-75
2023/06/03 03:16:52;;;;;;;3.20;2.70;;;;;;;;;;5005448;28;20061;-75
2023/06/03 03:19:18;;;;;;;4.28;2.72;;;;;;;;;;4998642;28;20540;-74
2023/06/03 03:21:45;;;;;;;4.03;2.50;;;;;;;;;;5009148;28;20124;-75
2023/06/03 03:24:11;;;;;;;5.03;2.60;;;;;;;;;;5011536;28;20204;-74
2023/06/03 03:26:37;;;;;;;2.90;2.60;;;;;;;;;;5003033;28;20494;-75
2023/06/03 03:29:03;;;;;;;4.72;2.97;;;;;;;;;;4997556;28;20105;-75
2023/06/03 03:31:30;;;;;;;4.13;2.85;;;;;;;;;;4995349;28;20061;-74
2023/06/03 03:33:56;;;;;;;4.68;2.60;;;;;;;;;;5011583;28;20050;-75
2023/06/03 03:36:22;;;;;;;3.70;2.78;;;;;;;;;;5003382;28;20101;-75
2023/06/03 03:39:00;;;;;;;5.25;2.85;;;;;;;;;;5008618;28;20092;-74
2023/06/03 03:41:26;;;;;;;3.40;3.03;;;;;;;;;;5005700;28;20050;-74
2023/06/03 03:43:52;;;;;;;3.33;2.20;;;;;;;;;;5004547;28;20406;-74
2023/06/03 03:46:18;;;;;;;4.70;2.40;;;;;;;;;;5005779;28;20046;-75
2023/06/03 03:48:45;;;;;;;3.13;2.42;;;;;;;;;;5001505;28;20085;-75
2023/06/03 03:51:12;;;;;;;2.58;2.38;;;;;;;;;;5008797;28;20500;-74
2023/06/03 03:53:42;;;;;;;3.70;2.28;;;;;;;;;;5007829;28;20049;-75
2023/06/03 03:56:08;;;;;;;3.33;2.40;;;;;;;;;;5000059;28;20045;-75
2023/06/03 03:58:37;;;;;;;4.63;2.72;;;;;;;;;;5004995;28;20104;-75
2023/06/03 04:01:12;;;;;;;3.22;2.22;;;;;;;;;;5004903;28;20642;-75
2023/06/03 04:03:42;;;;;;;3.97;2.30;;;;;;;;;;4994871;28;20241;-75
2023/06/03 04:06:12;;;;;;;2.75;2.47;;;;;;;;;;5007590;28;20057;-75
2023/06/03 04:08:56;;;;;;;2.67;2.35;;;;;;;;;;5010495;28;20045;-74
2023/06/03 04:11:27;;;;;;;2.55;2.35;;;;;;;;;;5004167;28;20470;-75
2023/06/03 04:13:53;;;;;;;5.70;2.22;;;;;;;;;;5011501;28;20042;-75
2023/06/03 04:16:25;;;;;;;4.28;2.40;;;;;;;;;;5007052;28;20042;-75
2023/06/03 04:18:51;;;;;;;3.15;2.30;;;;;;;;;;5009354;28;20038;-75
2023/06/03 04:21:19;;;;;;;2.70;2.40;;;;;;;;;;5003662;28;20096;-75
2023/06/03 04:23:46;;;;;;;3.78;2.53;;;;;;;;;;5011025;28;20151;-75
2023/06/03 04:26:15;;;;;;;3.35;2.50;;;;;;;;;;5010777;28;20405;-75
2023/06/03 04:28:41;;;;;;;2.40;2.10;;;;;;;;;;5005026;28;20101;-75
2023/06/03 04:31:07;;;;;;;2.35;2.15;;;;;;;;;;5010678;28;20046;-75
2023/06/03 04:33:33;;;;;;;2.75;2.38;;;;;;;;;;5008635;28;20050;-75
2023/06/03 04:35:59;;;;;;;3.00;2.50;;;;;;;;;;5006388;28;20401;-75
2023/06/03 04:38:26;;;;;;;4.90;2.40;;;;;;;;;;5004316;28;20496;-75
2023/06/03 04:40:53;;;;;;;4.25;2.50;;;;;;;;;;5008328;28;20486;-74
2023/06/03 04:43:19;;;;;;;3.05;2.53;;;;;;;;;;5009770;28;20050;-75
2023/06/03 04:45:49;;;;;;;4.80;2.42;;;;;;;;;;5009265;28;20054;-75
2023/06/03 04:48:15;;;;;;;2.85;2.15;;;;;;;;;;5009369;28;20057;-75
2023/06/03 04:50:44;;;;;;;2.90;2.58;;;;;;;;;;5007983;28;20073;-75
2023/06/03 04:53:11;;;;;;;4.63;2.60;;;;;;;;;;5011108;28;20080;-75
2023/06/03 04:55:37;;;;;;;4.00;2.50;;;;;;;;;;5015049;28;20057;-75
2023/06/03 04:58:05;;;;;;;2.40;2.20;;;;;;;;;;5011657;28;20120;-75
2023/06/03 05:00:32;;;;;;;3.65;2.35;;;;;;;;;;5021224;28;20046;-75
2023/06/03 05:02:59;;;;;;;3.70;2.45;;;;;;;;;;5005921;28;20497;-75
2023/06/03 05:05:26;;;;;;;3.65;2.50;;;;;;;;;;5003772;28;20038;-75
2023/06/03 05:07:52;;;;;;;3.05;2.55;;;;;;;;;;5007396;28;20045;-75
2023/06/03 05:10:19;;;;;;;4.75;2.90;;;;;;;;;;4990703;28;20053;-76
2023/06/03 05:12:45;;;;;;;2.40;2.20;;;;;;;;;;5003537;28;20049;-76
2023/06/03 05:15:12;;;;;;;3.05;2.30;;;;;;;;;;5007435;28;20042;-75
2023/06/03 05:17:38;;;;;;;3.60;2.53;;;;;;;;;;5006046;28;20571;-75
2023/06/03 05:20:06;;;;;;;4.07;2.40;;;;;;;;;;5014097;28;20573;-75
2023/06/03 05:22:32;;;;;;;2.63;2.22;;;;;;;;;;5007767;28;20037;-75
2023/06/03 05:24:58;;;;;;;3.20;2.65;;;;;;;;;;5009037;28;20387;-75
2023/06/03 05:27:24;;;;;;;3.60;2.40;;;;;;;;;;5008433;28;20038;-75
2023/06/03 05:29:50;;;;;;;3.78;2.40;;;;;;;;;;5004082;28;20076;-75
2023/06/03 05:32:16;;;;;;;2.88;2.53;;;;;;;;;;5008025;28;20421;-75
2023/06/03 05:34:41;;;;;;;3.05;2.20;;;;;;;;;;5007920;28;20045;-75
2023/06/03 05:37:07;;;;;;;1.80;1.70;;;;;;;;;;5007006;28;20050;-74
2023/06/03 05:39:35;;;;;;;2.72;2.08;;;;;;;;;;5005865;28;20505;-75
2023/06/03 05:42:01;;;;;;;4.28;2.10;;;;;;;;;;5003722;28;20482;-75
2023/06/03 05:44:27;;;;;;;3.13;2.10;;;;;;;;;;5003764;28;20048;-74
2023/06/03 05:46:53;;;;;;;4.82;2.40;;;;;;;;;;5007860;28;20041;-74
2023/06/03 05:49:19;;;;;;;2.53;2.08;;;;;;;;;;5001368;28;20073;-75
2023/06/03 05:51:45;;;;;;;3.00;2.30;;;;;;;;;;5009631;28;20448;-74
2023/06/03 05:54:13;;;;;;;3.60;2.30;;;;;;;;;;4996757;28;20142;-74
2023/06/03 05:56:39;;;;;;;2.50;2.20;;;;;;;;;;5005979;28;20547;-75
2023/06/03 05:59:06;;;;;;;3.90;2.40;;;;;;;;;;5004763;28;20090;-75
2023/06/03 06:01:33;;;;;;;5.78;2.22;;;;;;;;;;5007903;28;20516;-74
2023/06/03 06:03:59;;;;;;;2.92;1.80;;;;;;;;;;5009677;28;20139;-75
2023/06/03 06:06:25;;;;;;;3.05;2.35;;;;;;;;;;5010223;28;20658;-74
2023/06/03 06:08:51;;;;;;;2.83;1.95;;;;;;;;;;5008042;28;20406;-75
2023/06/03 06:11:17;;;;;;;3.08;1.80;;;;;;;;;;5004222;28;20042;-75
2023/06/03 06:13:43;;;;;;;3.55;2.10;;;;;;;;;;5002172;28;20486;-75
2023/06/03 06:16:09;;;;;;;2.70;2.13;;;;;;;;;;5007193;28;20436;-75
2023/06/03 06:18:35;;;;;;;3.25;2.15;;;;;;;;;;5006081;28;20041;-75
2023/06/03 06:21:01;;;;;;;3.67;2.17;;;;;;;;;;5005786;28;20486;-74
2023/06/03 06:23:28;;;;;;;2.90;2.50;;;;;;;;;;5004168;28;20053;-75
2023/06/03 06:25:54;;;;;;;3.10;2.30;;;;;;;;;;5021407;28;20057;-75
2023/06/03 06:28:22;;;;;;;2.53;1.90;;;;;;;;;;5007708;28;20390;-75
2023/06/03 06:30:48;;;;;;;3.70;2.20;;;;;;;;;;5001572;28;20084;-75
2023/06/03 06:33:17;;;;;;;2.50;2.13;;;;;;;;;;5009383;28;20144;-74
2023/06/03 06:35:44;;;;;;;4.53;2.10;;;;;;;;;;5007491;28;20086;-74
2023/06/03 06:38:10;;;;;;;3.83;2.40;;;;;;;;;;5008216;28;20049;-75
2023/06/03 06:40:40;;;;;;;3.25;2.10;;;;;;;;;;5005945;28;20210;-75
2023/06/03 06:43:07;;;;;;;3.30;2.13;;;;;;;;;;5005513;28;20050;-75
2023/06/03 06:45:34;;;;;;;2.88;2.13;;;;;;;;;;5003976;28;20038;-75
2023/06/03 06:48:06;;;;;;;3.40;2.10;;;;;;;;;;5024066;28;20057;-74
2023/06/03 06:50:52;;;;;;;3.42;1.90;;;;;;;;;;5007217;28;20050;-75
2023/06/03 06:53:19;;;;;;;2.63;2.38;;;;;;;;;;5011636;28;20050;-74
2023/06/03 06:55:48;;;;;;;5.38;2.30;;;;;;;;;;5012603;28;20050;-75
2023/06/03 06:58:14;;;;;;;4.82;2.55;;;;;;;;;;5006361;28;20055;-75
2023/06/03 07:00:41;;;;;;;2.13;1.90;;;;;;;;;;5005515;28;20057;-75
2023/06/03 07:03:08;;;;;;;4.70;2.28;;;;;;;;;;5012768;28;20064;-75
2023/06/03 07:05:34;;;;;;;3.40;2.40;;;;;;;;;;5006592;28;20132;-75
2023/06/03 07:08:00;;;;;;;3.47;2.10;;;;;;;;;;5006361;28;20189;-74
2023/06/03 07:10:26;;;;;;;3.20;2.47;;;;;;;;;;5011658;28;20061;-75
2023/06/03 07:12:53;;;;;;;2.83;2.20;;;;;;;;;;5006328;28;20521;-74
2023/06/03 07:15:19;;;;;;;2.50;2.30;;;;;;;;;;5009766;28;20046;-75
2023/06/03 07:17:52;;;;;;;3.05;2.30;;;;;;;;;;5012629;28;20081;-75
2023/06/03 07:20:19;;;;;;;5.18;2.45;;;;;;;;;;5006313;28;20132;-74
2023/06/03 07:22:45;;;;;;;4.18;2.60;;;;;;;;;;5006233;28;20046;-75
2023/06/03 07:25:21;;;;;;;3.22;2.15;;;;;;;;;;5005084;28;20045;-74
2023/06/03 07:27:47;;;;;;;2.60;2.40;;;;;;;;;;5003547;28;20042;-74
2023/06/03 07:30:15;;;;;;;2.30;2.10;;;;;;;;;;5005663;28;20693;-74
2023/06/03 07:32:41;;;;;;;2.08;1.90;;;;;;;;;;5006882;28;20486;-74
2023/06/03 07:35:08;;;;;;;5.05;2.45;;;;;;;;;;4997994;28;20164;-74
2023/06/03 07:37:34;;;;;;;4.85;2.40;;;;;;;;;;5000698;28;20046;-75
2023/06/03 07:40:00;;;;;;;4.35;2.40;;;;;;;;;;5004488;28;20445;-75
2023/06/03 07:42:27;;;;;;;4.90;2.00;;;;;;;;;;5000391;28;20381;-75
2023/06/03 07:44:55;;;;;;;2.70;2.20;;;;;;;;;;5005692;28;20061;-74
2023/06/03 07:47:21;;;;;;;2.55;2.13;;;;;;;;;;5007036;28;20125;-75
2023/06/03 07:49:48;;;;;;;2.13;2.00;;;;;;;;;;4998104;28;20494;-74
2023/06/03 07:52:18;;;;;;;2.55;2.10;;;;;;;;;;5005310;28;20100;-74
2023/06/03 07:54:44;;;;;;;4.93;2.28;;;;;;;;;;5001289;28;20129;-74
2023/06/03 07:57:11;;;;;;;2.10;1.85;;;;;;;;;;5006444;28;20405;-75
2023/06/03 07:59:37;;;;;;;3.38;2.00;;;;;;;;;;5011817;28;20465;-74
2023/06/03 08:02:03;;;;;;;1.98;1.73;;;;;;;;;;5004239;28;20037;-75
2023/06/03 08:04:29;;;;;;;5.07;1.98;;;;;;;;;;5007524;28;20042;-75
2023/06/03 08:06:56;;;;;;;2.42;2.00;;;;;;;;;;5006096;28;20037;-75
2023/06/03 08:09:27;;;;;;;2.25;2.05;;;;;;;;;;4999203;28;20038;-75
2023/06/03 08:11:53;;;;;;;3.10;1.80;;;;;;;;;;4994743;28;20097;-75
2023/06/03 08:14:21;;;;;;;2.75;1.83;;;;;;;;;;4999681;28;20078;-74
2023/06/03 08:16:47;;;;;;;2.50;2.20;;;;;;;;;;5000645;28;20057;-73
2023/06/03 08:19:14;;;;;;;3.50;2.08;;;;;;;;;;5007166;28;20088;-74
2023/06/03 08:21:41;;;;;;;2.22;2.00;;;;;;;;;;5004032;28;20371;-74
2023/06/03 08:24:09;;;;;;;2.83;1.80;;;;;;;;;;4999483;28;20505;-74
2023/06/03 08:26:36;;;;;;;3.05;2.05;;;;;;;;;;5000084;28;20057;-74
2023/06/03 08:29:03;;;;;;;2.53;2.00;;;;;;;;;;4999262;28;20046;-74
2023/06/03 08:31:32;;;;;;;1.75;1.65;;;;;;;;;;5010462;28;20571;-74
2023/06/03 08:33:58;;;;;;;2.65;1.90;;;;;;;;;;5020211;28;20056;-75
2023/06/03 08:36:24;;;;;;;2.22;2.00;;;;;;;;;;5003694;28;20041;-75
2023/06/03 08:38:50;;;;;;;3.05;2.00;;;;;;;;;;5007220;28;20046;-75
2023/06/03 08:41:16;;;;;;;3.55;1.90;;;;;;;;;;5003732;28;20104;-75
2023/06/03 08:43:50;;;;;;;3.47;1.90;;;;;;;;;;4997017;28;20421;-73
2023/06/03 08:46:29;;;;;;;2.08;1.90;;;;;;;;;;4999149;28;20058;-74
2023/06/03 08:48:55;;;;;;;5.97;1.98;;;;;;;;;;4999500;28;20057;-74
2023/06/03 08:51:23;;;;;;;2.75;2.10;;;;;;;;;;4998764;28;20038;-74
2023/06/03 08:53:49;;;;;;;3.08;1.80;;;;;;;;;;5006642;28;20076;-73
2023/06/03 08:56:26;;;;;;;2.30;2.10;;;;;;;;;;5020115;28;20046;-73
2023/06/03 08:59:01;;;;;;;1.85;1.65;;;;;;;;;;5015686;28;20049;-74
2023/06/03 09:01:28;;;;;;;4.55;1.70;;;;;;;;;;5002901;28;20054;-74
2023/06/03 09:03:54;;;;;;;2.00;1.80;;;;;;;;;;5006119;28;20125;-74
2023/06/03 09:06:21;;;;;;;1.88;1.73;;;;;;;;;;5000414;28;20498;-74
2023/06/03 09:08:51;;;;;;;1.80;1.70;;;;;;;;;;5006785;28;20045;-74
2023/06/03 09:11:17;;;;;;;3.42;2.40;;;;;;;;;;5002257;28;20050;-75
2023/06/03 09:13:43;;;;;;;3.13;2.05;;;;;;;;;;5012414;28;20101;-74
2023/06/03 09:16:10;;;;;;;4.32;1.88;;;;;;;;;;5022543;28;20108;-74
2023/06/03 09:18:36;;;;;;;2.20;1.95;;;;;;;;;;5006825;28;20049;-74
2023/06/03 09:21:03;;;;;;;2.20;1.83;;;;;;;;;;5011176;28;20125;-79
2023/06/03 09:23:29;;;;;;;3.33;1.65;;;;;;;;;;5013099;28;20084;-77
2023/06/03 09:25:55;;;;;;;2.28;1.90;;;;;;;;;;5009742;28;20117;-76
2023/06/03 09:28:21;;;;;;;1.77;1.65;;;;;;;;;;5005598;28;20050;-76
2023/06/03 09:30:47;;;;;;;1.60;1.50;;;;;;;;;;5008290;28;20053;-76
2023/06/03 09:33:13;;;;;;;2.95;1.50;;;;;;;;;;5006254;28;20117;-76
2023/06/03 09:35:40;;;;;;;5.25;1.65;;;;;;;;;;5001578;28;20559;-76
2023/06/03 09:38:06;;;;;;;2.30;1.70;;;;;;;;;;4999638;28;20477;-75
2023/06/03 09:40:32;;;;;;;2.13;1.73;;;;;;;;;;5003287;28;20069;-75
2023/06/03 09:42:58;;;;;;;3.95;1.70;;;;;;;;;;4994642;28;20085;-75
2023/06/03 09:45:31;;;;;;;14.90;2.47;;;;;;;;;;4984556;28;20058;-75
2023/06/03 09:47:58;;;;;;;3.20;1.60;;;;;;;;;;5005982;28;20370;-76
2023/06/03 09:50:25;;;;;;;2.38;1.63;;;;;;;;;;5006623;28;20056;-75
2023/06/03 09:52:51;;;;;;;2.60;1.73;;;;;;;;;;5012450;28;20042;-76
2023/06/03 09:55:17;;;;;;;1.70;1.60;;;;;;;;;;5004565;28;20093;-73
2023/06/03 09:58:02;;;;;;;1.73;1.63;;;;;;;;;;5003341;28;20077;-80
2023/06/03 10:00:30;;;;;;;1.95;1.80;;;;;;;;;;5005259;28;20120;-80
2023/06/03 10:03:07;;;;;;;2.97;1.60;;;;;;;;;;5002741;28;20042;-81
2023/06/03 10:05:33;;;;;;;1.85;1.67;;;;;;;;;;5003623;28;20054;-83
2023/06/03 10:08:02;;;;;;;2.70;1.50;;;;;;;;;;5009052;28;20128;-79
2023/06/03 10:10:28;;;;;;;1.67;1.50;;;;;;;;;;4987603;28;20056;-79
2023/06/03 10:12:54;;;;;;;2.75;1.52;;;;;;;;;;5002314;28;20573;-79
2023/06/03 10:15:38;;;;;;;1.77;1.67;;;;;;;;;;5000027;28;20046;-83
2023/06/03 10:18:05;;;;;;;2.08;1.83;;;;;;;;;;5004290;28;20123;-82
2023/06/03 10:20:34;;;;;;;1.90;1.60;;;;;;;;;;5003321;28;20058;-73
2023/06/03 10:23:03;;;;;;;1.38;1.30;;;;;;;;;;5001154;28;20042;-76
2023/06/03 10:25:32;;;;;;;2.20;1.70;;;;;;;;;;5002918;28;20046;-75
2023/06/03 10:27:59;;;;;;;2.20;1.58;;;;;;;;;;5004030;28;20046;-75
2023/06/03 10:30:26;;;;;;;2.30;1.83;;;;;;;;;;5002376;28;20041;-74
2023/06/03 10:32:53;;;;;;;1.88;1.65;;;;;;;;;;5001492;28;20080;-74
2023/06/03 10:35:21;;;;;;;1.73;1.63;;;;;;;;;;5000712;28;20040;-74
2023/06/03 10:37:47;;;;;;;1.75;1.65;;;;;;;;;;5007430;28;20064;-73
2023/06/03 10:40:14;;;;;;;4.22;1.90;;;;;;;;;;4999640;28;20306;-73
2023/06/03 10:42:41;;;;;;;2.88;1.70;;;;;;;;;;5000542;28;20053;-74
2023/06/03 10:45:07;;;;;;;1.95;1.52;;;;;;;;;;5003981;28;20033;-74
2023/06/03 10:47:34;;;;;;;2.03;1.80;;;;;;;;;;5004638;28;20034;-74
2023/06/03 10:50:02;;;;;;;2.00;1.70;;;;;;;;;;5009202;28;20053;-74
2023/06/03 10:52:49;;;;;;;1.70;1.60;;;;;;;;;;5008105;28;20452;-74
2023/06/03 10:55:35;;;;;;;1.80;1.70;;;;;;;;;;4999004;28;20050;-74
2023/06/03 10:58:13;;;;;;;2.42;1.58;;;;;;;;;;4984684;28;20376;-74
2023/06/03 11:00:53;;;;;;;2.80;1.70;;;;;;;;;;5002692;28;20049;-74
2023/06/03 11:03:21;;;;;;;3.38;2.00;;;;;;;;;;5008408;28;20061;-74
2023/06/03 11:05:47;;;;;;;1.88;1.70;;;;;;;;;;5004410;28;20041;-75
2023/06/03 11:08:13;;;;;;;4.22;1.80;;;;;;;;;;5013336;28;20552;-73
2023/06/03 11:10:40;;;;;;;1.90;1.67;;;;;;;;;;5001846;28;20050;-74
2023/06/03 11:13:06;;;;;;;1.98;1.80;;;;;;;;;;5007793;28;20044;-73
2023/06/03 11:15:51;;;;;;;2.10;1.70;;;;;;;;;;5005308;28;20084;-73
2023/06/03 11:18:17;;;;;;;1.50;1.40;;;;;;;;;;4999288;28;20061;-72
2023/06/03 11:20:43;;;;;;;1.75;1.58;;;;;;;;;;5017263;28;20465;-73
2023/06/03 11:23:10;;;;;;;1.73;1.63;;;;;;;;;;5007232;28;20044;-73
2023/06/03 11:25:38;;;;;;;1.50;1.40;;;;;;;;;;5000669;28;20053;-73
2023/06/03 11:28:36;;;;;;;2.08;1.50;;;;;;;;;;5002684;28;20053;-73
2023/06/03 11:31:03;;;;;;;1.83;1.60;;;;;;;;;;4994349;28;20129;-73
2023/06/03 11:33:29;;;;;;;2.47;1.50;;;;;;;;;;5005394;28;20397;-73
2023/06/03 11:35:55;;;;;;;1.67;1.58;;;;;;;;;;5001788;28;20046;-73
2023/06/03 11:38:41;;;;;;;1.98;1.65;;;;;;;;;;5001382;28;20076;-73
2023/06/03 11:41:07;;;;;;;2.13;1.70;;;;;;;;;;4993503;28;20523;-72
2023/06/03 11:43:33;;;;;;;1.50;1.40;;;;;;;;;;4999229;28;20041;-73
2023/06/03 11:46:05;;;;;;;2.47;1.70;;;;;;;;;;5010465;28;20812;-74
2023/06/03 11:48:37;;;;;;;2.05;1.60;;;;;;;;;;5010659;28;20049;-73
2023/06/03 11:51:03;;;;;;;3.95;1.75;;;;;;;;;;4998450;28;20058;-73
2023/06/03 11:53:33;;;;;;;1.92;1.70;;;;;;;;;;5000559;28;20054;-73
2023/06/03 11:56:08;;;;;;;5.28;1.70;;;;;;;;;;5003272;28;20042;-72
2023/06/03 11:58:34;;;;;;;2.00;1.60;;;;;;;;;;5007445;28;20054;-73
2023/06/03 12:01:11;;;;;;;6.88;1.98;;;;;;;;;;5011326;28;20112;-73
2023/06/03 12:03:38;;;;;;;2.75;1.70;;;;;;;;;;5000530;28;20053;-75
2023/06/03 12:06:05;;;;;;;3.25;2.03;;;;;;;;;;5000275;28;20141;-74
2023/06/03 12:08:45;;;;;;;5.88;1.50;;;;;;;;;;5002310;28;20038;-78
2023/06/03 12:11:24;;;;;;;3.03;1.50;;;;;;;;;;5007625;28;20137;-76
2023/06/03 12:13:50;;;;;;;4.00;1.73;;;;;;;;;;5006403;28;21776;-74
2023/06/03 12:16:46;;;;;;;1.83;1.70;;;;;;;;;;5000166;28;20077;-74
2023/06/03 12:19:12;;;;;;;4.15;1.85;;;;;;;;;;4979185;28;20057;-74
2023/06/03 12:21:39;;;;;;;2.33;1.67;;;;;;;;;;5002638;28;20042;-74
2023/06/03 12:24:14;;;;;;;2.90;1.80;;;;;;;;;;5006373;28;20050;-75
2023/06/03 12:26:41;;;;;;;6.25;1.83;;;;;;;;;;5005069;28;20401;-74
2023/06/03 12:29:10;;;;;;;2.30;1.50;;;;;;;;;;5008314;28;20100;-74
2023/06/03 12:31:37;;;;;;;3.42;1.48;;;;;;;;;;5006102;28;20161;-74
2023/06/03 12:34:03;;;;;;;3.70;1.70;;;;;;;;;;4999388;28;20038;-74
2023/06/03 12:36:48;;;;;;;1.63;1.52;;;;;;;;;;5008817;28;20096;-74
2023/06/03 12:39:15;;;;;;;3.40;1.70;;;;;;;;;;5007092;28;20072;-74
2023/06/03 12:41:53;;;;;;;4.82;1.65;;;;;;;;;;5006300;28;20045;-74
2023/06/03 12:44:19;;;;;;;4.38;1.75;;;;;;;;;;5002516;28;20118;-75
2023/06/03 12:46:59;;;;;;;2.22;1.55;;;;;;;;;;5010260;28;20050;-74
2023/06/03 12:49:25;;;;;;;1.80;1.60;;;;;;;;;;5006595;28;20052;-74
2023/06/03 12:51:51;;;;;;;3.83;1.60;;;;;;;;;;5006613;28;20046;-74
2023/06/03 12:54:17;;;;;;;3.80;1.80;;;;;;;;;;4998334;28;20050;-74
2023/06/03 12:56:43;;;;;;;2.95;1.80;;;;;;;;;;4995144;28;20077;-73
2023/06/03 12:59:09;;;;;;;1.60;1.50;;;;;;;;;;5008849;28;20573;-74
2023/06/03 13:01:35;;;;;;;2.60;1.60;;;;;;;;;;5008647;28;20053;-73
2023/06/03 13:04:01;;;;;;;1.95;1.70;;;;;;;;;;5009163;28;20048;-74
2023/06/03 13:06:27;;;;;;;1.67;1.58;;;;;;;;;;5008042;28;20046;-74
2023/06/03 13:08:53;;;;;;;3.05;1.58;;;;;;;;;;5003121;28;20073;-74
2023/06/03 13:11:20;;;;;;;2.33;1.85;;;;;;;;;;5007374;28;20042;-74
2023/06/03 13:13:46;;;;;;;2.00;1.60;;;;;;;;;;5009425;28;20111;-74
2023/06/03 13:16:12;;;;;;;1.60;1.50;;;;;;;;;;5005133;28;20045;-74
2023/06/03 13:18:38;;;;;;;1.98;1.45;;;;;;;;;;5000430;28;20512;-74
2023/06/03 13:21:04;;;;;;;2.03;1.52;;;;;;;;;;5008483;28;20045;-75
2023/06/03 13:23:30;;;;;;;3.40;1.60;;;;;;;;;;4999229;28;20084;-75
2023/06/03 13:25:57;;;;;;;4.57;1.70;;;;;;;;;;5001571;28;20042;-75
2023/06/03 13:28:23;;;;;;;4.75;1.88;;;;;;;;;;5008750;28;20096;-75
2023/06/03 13:30:49;;;;;;;2.47;1.60;;;;;;;;;;4993685;28;20418;-73
2023/06/03 13:33:16;;;;;;;6.82;2.08;;;;;;;;;;4993974;28;20050;-74
2023/06/03 13:35:42;;;;;;;3.33;1.70;;;;;;;;;;5009182;28;20084;-74
2023/06/03 13:38:08;;;;;;;2.17;1.73;;;;;;;;;;4995688;28;20059;-75
2023/06/03 13:40:34;;;;;;;3.42;1.58;;;;;;;;;;5005404;28;20061;-75
2023/06/03 13:43:02;;;;;;;4.03;1.75;;;;;;;;;;5011728;28;20050;-75
2023/06/03 13:45:28;;;;;;;4.50;1.60;;;;;;;;;;4999794;28;20561;-75
2023/06/03 13:47:55;;;;;;;5.90;1.60;;;;;;;;;;5004363;28;20149;-75
2023/06/03 13:50:21;;;;;;;6.15;1.75;;;;;;;;;;5010479;28;20045;-74
2023/06/03 13:52:47;;;;;;;2.60;1.70;;;;;;;;;;5008161;28;20092;-75
2023/06/03 13:55:13;;;;;;;3.75;1.70;;;;;;;;;;5007212;28;20042;-74
2023/06/03 13:57:39;;;;;;;3.58;1.70;;;;;;;;;;5006099;28;20054;-75
2023/06/03 14:00:05;;;;;;;13.20;10.57;;;;;;;;;;5007621;28;20409;-74
2023/06/03 14:02:31;;;;;;;6.25;4.72;;;;;;;;;;5012138;28;20046;-74
2023/06/03 14:04:57;;;;;;;3.10;2.15;;;;;;;;;;5008266;28;20038;-74
2023/06/03 14:07:23;;;;;;;2.65;1.73;;;;;;;;;;4994093;28;20048;-73
2023/06/03 14:09:49;;;;;;;2.45;1.40;;;;;;;;;;4996480;28;20486;-74
2023/06/03 14:12:15;;;;;;;3.85;1.63;;;;;;;;;;5010696;28;20046;-73
2023/06/03 14:14:44;;;;;;;2.05;1.45;;;;;;;;;;5012185;28;20050;-73
2023/06/03 14:17:10;;;;;;;2.47;1.42;;;;;;;;;;4996116;28;20058;-73
2023/06/03 14:19:36;;;;;;;2.85;1.42;;;;;;;;;;5010270;28;20042;-74
2023/06/03 14:22:03;;;;;;;1.92;1.60;;;;;;;;;;5003735;28;20064;-74
2023/06/03 14:24:29;;;;;;;2.60;1.38;;;;;;;;;;4995610;28;20050;-73
2023/06/03 14:26:55;;;;;;;4.75;1.50;;;;;;;;;;4997260;28;20084;-75
2023/06/03 14:29:21;;;;;;;1.60;1.50;;;;;;;;;;4990863;28;20054;-74
2023/06/03 14:31:47;;;;;;;2.47;1.50;;;;;;;;;;5007422;28;20135;-74
2023/06/03 14:34:13;;;;;;;6.00;1.70;;;;;;;;;;5011541;28;20066;-74
2023/06/03 14:36:39;;;;;;;2.42;1.80;;;;;;;;;;4991567;28;20429;-75
2023/06/03 14:39:05;;;;;;;1.50;1.40;;;;;;;;;;5005798;28;20593;-75
2023/06/03 14:41:32;;;;;;;2.13;1.50;;;;;;;;;;4997264;28;20037;-75
2023/06/03 14:43:58;;;;;;;1.98;1.60;;;;;;;;;;5012243;28;20098;-75
2023/06/03 14:46:25;;;;;;;6.32;1.52;;;;;;;;;;5012710;28;20046;-75